Time;durP1;ratioP1;P1;durP2;ratioP2;P2;SDS_P1;SDS_P2;PMS_P1;PMS_P2;Temp;Humidity;BMP_temperature;BMP_pressure;BME280_temperature;BME280_humidity;BME280_pressure;Samples;Min_cycle;Max_cycle;Signal;HPM_P1;HPM_P2
2023/09/03 00:00:57;;;;;;;2.67;1.92;;;;;;;16.53;100.00;99208.03;15267980;19;20021;-51
2023/09/03 00:06:25;;;;;;;2.22;1.92;;;;;;;16.44;100.00;99229.03;15279744;19;20014;-50
2023/09/03 00:11:50;;;;;;;2.97;1.77;;;;;;;16.40;100.00;99240.44;15273108;19;20018;-48
2023/09/03 00:17:15;;;;;;;1.92;1.70;;;;;;;16.38;100.00;99242.50;15271931;19;20428;-54
2023/09/03 00:22:42;;;;;;;2.40;1.70;;;;;;;16.37;100.00;99249.78;15272617;19;20031;-52
2023/09/03 00:28:07;;;;;;;2.33;1.42;;;;;;;16.34;100.00;99250.16;15277729;19;20086;-50
2023/09/03 00:33:32;;;;;;;2.20;1.77;;;;;;;16.28;100.00;99235.41;15264064;19;20574;-45
2023/09/03 00:39:00;;;;;;;2.60;2.10;;;;;;;16.23;100.00;99229.66;15277648;19;20812;-47
2023/09/03 00:44:25;;;;;;;2.88;1.75;;;;;;;16.16;100.00;99215.09;15272470;19;20041;-49
2023/09/03 00:49:52;;;;;;;2.90;2.30;;;;;;;16.09;100.00;99231.25;15266228;19;20484;-47
2023/09/03 00:55:19;;;;;;;4.68;3.20;;;;;;;16.04;100.00;99219.22;15274105;19;20011;-46
2023/09/03 01:00:45;;;;;;;3.05;2.15;;;;;;;15.97;100.00;99219.91;15270745;19;20471;-46
2023/09/03 01:06:16;;;;;;;3.40;2.13;;;;;;;15.93;100.00;99250.34;15263896;19;20490;-45
2023/09/03 01:11:50;;;;;;;2.28;1.90;;;;;;;15.86;100.00;99266.50;15269061;19;20748;-55
2023/09/03 01:17:21;;;;;;;2.72;2.10;;;;;;;15.76;100.00;99304.69;14762821;19;10000638;-48
2023/09/03 01:23:14;;;;;;;3.35;2.05;;;;;;;15.70;100.00;99327.97;15263113;19;20010;-47
2023/09/03 01:28:45;;;;;;;3.47;2.00;;;;;;;15.66;100.00;99325.75;15269406;19;20101;-48
2023/09/03 01:34:10;;;;;;;1.60;1.50;;;;;;;15.63;100.00;99332.41;15265901;19;20443;-48
2023/09/03 01:39:34;;;;;;;1.50;1.40;;;;;;;15.59;100.00;99328.31;15260450;19;20022;-48
2023/09/03 01:45:01;;;;;;;2.13;1.40;;;;;;;15.57;100.00;99328.50;15272271;19;20018;-47
2023/09/03 01:50:35;;;;;;;2.17;1.42;;;;;;;15.53;100.00;99310.84;15265813;19;20021;-45
2023/09/03 01:56:05;;;;;;;1.60;1.40;;;;;;;15.49;100.00;99309.50;15267933;19;20526;-48
2023/09/03 02:01:35;;;;;;;2.45;1.70;;;;;;;15.43;100.00;99312.06;15267178;19;20039;-50
2023/09/03 02:07:00;;;;;;;3.03;1.50;;;;;;;15.37;100.00;99303.56;15270909;19;20528;-46
2023/09/03 02:12:26;;;;;;;3.40;2.42;;;;;;;15.33;100.00;99287.78;15257263;19;20039;-45
2023/09/03 02:17:55;;;;;;;3.70;2.50;;;;;;;15.27;100.00;99297.47;15267203;19;20357;-49
2023/09/03 02:23:21;;;;;;;2.75;2.38;;;;;;;15.22;100.00;99316.16;15258155;19;20967;-50
2023/09/03 02:28:46;;;;;;;3.08;2.00;;;;;;;15.16;100.00;99309.53;15264917;19;20018;-45
2023/09/03 02:34:16;;;;;;;3.83;2.47;;;;;;;15.12;100.00;99339.88;15265638;19;20610;-45
2023/09/03 02:39:41;;;;;;;3.13;2.47;;;;;;;15.10;100.00;99348.19;15268216;19;20526;-44
2023/09/03 02:45:05;;;;;;;6.50;3.75;;;;;;;15.08;100.00;99386.34;15259409;19;20421;-45
2023/09/03 02:50:32;;;;;;;4.30;2.90;;;;;;;15.10;100.00;99386.19;15269494;19;20098;-50
2023/09/03 02:55:58;;;;;;;21.00;4.82;;;;;;;15.01;100.00;99409.72;15261945;19;20058;-50
2023/09/03 03:01:23;;;;;;;2.78;2.20;;;;;;;14.95;100.00;99421.25;15262023;19;20007;-48
2023/09/03 03:06:50;;;;;;;2.70;2.47;;;;;;;14.89;100.00;99403.78;15268061;19;20013;-48
2023/09/03 03:12:15;;;;;;;2.50;2.30;;;;;;;14.87;100.00;99391.41;15276909;19;20078;-52
2023/09/03 03:17:39;;;;;;;5.45;2.03;;;;;;;14.84;100.00;99398.00;15280753;19;20014;-50
2023/09/03 03:23:06;;;;;;;3.53;2.15;;;;;;;14.82;100.00;99404.59;15276730;19;20796;-49
2023/09/03 03:28:31;;;;;;;2.20;2.00;;;;;;;14.75;100.00;99410.69;15273689;19;20498;-51
2023/09/03 03:33:57;;;;;;;2.53;2.10;;;;;;;14.74;100.00;99405.41;15274854;19;20018;-48
2023/09/03 03:39:26;;;;;;;18.17;2.92;;;;;;;14.69;100.00;99397.78;15278818;19;20015;-47
2023/09/03 03:44:51;;;;;;;72.80;3.88;;;;;;;14.67;100.00;99372.66;15271122;19;20022;-47
2023/09/03 03:50:16;;;;;;;7.53;2.30;;;;;;;14.64;100.00;99381.13;15278809;19;20559;-45
2023/09/03 03:55:43;;;;;;;676.65;13.40;;;;;;;14.66;100.00;99372.81;15277285;19;20014;-51
2023/09/03 04:01:09;;;;;;;11.02;2.47;;;;;;;14.64;100.00;99384.69;15269456;19;20015;-49
2023/09/03 04:06:42;;;;;;;10.40;2.50;;;;;;;14.64;100.00;99389.25;15276262;19;20014;-45
2023/09/03 04:12:10;;;;;;;236.37;5.70;;;;;;;14.61;100.00;99389.59;15270977;19;20095;-50
2023/09/03 04:17:35;;;;;;;320.27;7.82;;;;;;;14.57;100.00;99402.63;15267756;19;20320;-46
2023/09/03 04:23:03;;;;;;;140.55;4.70;;;;;;;14.49;100.00;99414.28;15270601;19;20014;-45
2023/09/03 04:28:30;;;;;;;80.38;3.50;;;;;;;14.48;100.00;99423.44;15274237;19;20030;-49
2023/09/03 04:33:56;;;;;;;24.42;2.63;;;;;;;14.48;100.00;99442.41;15266669;19;20079;-47
2023/09/03 04:39:21;;;;;;;46.03;3.17;;;;;;;14.45;100.00;99456.28;15271164;19;20014;-46
2023/09/03 04:44:48;;;;;;;19.17;2.90;;;;;;;14.45;100.00;99464.41;15273356;19;20017;-48
2023/09/03 04:50:15;;;;;;;2.00;1.90;;;;;;;14.45;100.00;99477.97;15263608;19;20025;-48
2023/09/03 04:55:40;;;;;;;2.00;1.90;;;;;;;14.52;100.00;99499.03;15266606;19;20043;-47
2023/09/03 05:01:08;;;;;;;2.45;2.00;;;;;;;14.56;100.00;99508.53;15263676;19;20368;-51
2023/09/03 05:06:44;;;;;;;2.30;2.10;;;;;;;14.60;100.00;99537.03;15269102;19;20010;-49
2023/09/03 05:12:09;;;;;;;4.67;2.00;;;;;;;14.65;100.00;99540.09;15265742;19;20368;-51
2023/09/03 05:17:37;;;;;;;2.22;1.90;;;;;;;14.68;100.00;99549.84;15272863;19;20360;-48
2023/09/03 05:23:02;;;;;;;2.95;1.88;;;;;;;14.69;100.00;99555.09;15258976;19;20015;-46
2023/09/03 05:28:27;;;;;;;9.25;2.47;;;;;;;14.67;100.00;99553.53;15271088;19;20035;-49
2023/09/03 05:33:56;;;;;;;807.00;19.30;;;;;;;14.67;100.00;99554.41;15263865;19;20019;-48
2023/09/03 05:39:21;;;;;;;183.38;5.78;;;;;;;14.68;100.00;99558.81;15262464;19;20043;-48
2023/09/03 05:44:46;;;;;;;338.58;9.85;;;;;;;14.72;100.00;99589.19;15267404;19;20014;-46
2023/09/03 05:50:15;;;;;;;5.05;2.63;;;;;;;14.76;100.00;99596.00;15268286;19;20031;-48
2023/09/03 05:55:42;;;;;;;27.20;2.72;;;;;;;14.84;100.00;99597.91;15258212;19;20040;-46
2023/09/03 06:01:07;;;;;;;2.60;1.90;;;;;;;14.89;100.00;99603.69;15266287;19;20006;-47
2023/09/03 06:06:44;;;;;;;7.00;2.40;;;;;;;14.99;100.00;99625.31;15263100;19;20363;-50
2023/09/03 06:12:09;;;;;;;3.88;2.42;;;;;;;15.09;100.00;99617.91;15261312;19;20018;-47
2023/09/03 06:17:34;;;;;;;2.45;2.25;;;;;;;15.21;100.00;99623.91;15267624;19;20010;-50
2023/09/03 06:23:01;;;;;;;2.65;2.22;;;;;;;15.32;100.00;99639.06;15263078;19;20043;-47
2023/09/03 06:28:28;;;;;;;4.18;2.50;;;;;;;15.40;100.00;99656.25;15260987;19;20605;-51
2023/09/03 06:33:53;;;;;;;2.47;2.20;;;;;;;15.55;100.00;99670.06;15266530;19;20013;-45
2023/09/03 06:39:20;;;;;;;2.72;2.40;;;;;;;15.66;100.00;99670.78;15264282;19;20110;-45
2023/09/03 06:44:51;;;;;;;2.92;2.60;;;;;;;15.81;100.00;99676.47;15273270;19;20025;-46
2023/09/03 06:50:17;;;;;;;4.97;3.00;;;;;;;15.93;100.00;99677.03;15279433;19;20474;-45
2023/09/03 06:55:44;;;;;;;3.60;2.88;;;;;;;16.01;100.00;99656.16;15275487;19;20010;-48
2023/09/03 07:01:09;;;;;;;2.92;2.60;;;;;;;16.11;100.00;99666.03;15269850;19;20581;-45
2023/09/03 07:06:40;;;;;;;3.25;2.70;;;;;;;16.23;100.00;99656.53;15275984;19;20039;-46
2023/09/03 07:12:09;;;;;;;2.50;2.30;;;;;;;16.35;100.00;99536.56;15276056;19;20018;-48
2023/09/03 07:17:33;;;;;;;2.45;2.15;;;;;;;16.48;100.00;99521.41;15276303;19;20028;-46
2023/09/03 07:22:58;;;;;;;4.38;2.22;;;;;;;16.60;100.00;99464.75;15272438;19;20039;-48
2023/09/03 07:28:25;;;;;;;2.97;2.20;;;;;;;16.67;100.00;99442.28;15278286;19;20098;-52
2023/09/03 07:33:52;;;;;;;2.00;1.80;;;;;;;16.77;100.00;99453.81;15266571;19;20011;-46
2023/09/03 07:39:23;;;;;;;3.00;2.05;;;;;;;16.77;100.00;99465.56;15278819;19;20415;-46
2023/09/03 07:44:50;;;;;;;3.28;1.83;;;;;;;16.67;100.00;99443.16;15276535;19;20014;-47
2023/09/03 07:50:17;;;;;;;1.90;1.60;;;;;;;16.76;100.00;99441.22;15271507;19;20033;-49
2023/09/03 07:55:42;;;;;;;2.63;1.77;;;;;;;16.85;100.00;99461.94;15274807;19;20018;-45
2023/09/03 08:01:10;;;;;;;2.42;1.70;;;;;;;16.93;100.00;99480.97;15277236;19;20090;-45
2023/09/03 08:06:42;;;;;;;3.30;1.52;;;;;;;17.04;100.00;99476.19;15266625;19;20033;-46
2023/09/03 08:12:08;;;;;;;1.80;1.60;;;;;;;17.15;100.00;99462.16;15272115;19;20013;-44
2023/09/03 08:17:35;;;;;;;2.38;1.38;;;;;;;17.32;100.00;99445.75;15276954;19;20030;-48
2023/09/03 08:23:00;;;;;;;2.28;1.42;;;;;;;17.49;100.00;99441.03;15268673;19;20010;-46
2023/09/03 08:28:24;;;;;;;3.60;1.33;;;;;;;17.60;100.00;99431.56;15277752;19;20015;-47
2023/09/03 08:33:53;;;;;;;2.53;1.30;;;;;;;17.55;100.00;99435.72;15274255;19;20018;-46
2023/09/03 08:39:18;;;;;;;1.58;1.15;;;;;;;17.58;100.00;99450.00;15276776;19;20010;-47
2023/09/03 08:44:48;;;;;;;3.15;1.40;;;;;;;17.67;100.00;99463.38;15274857;19;20116;-50
2023/09/03 08:50:17;;;;;;;2.30;1.20;;;;;;;17.75;100.00;99473.38;15270316;19;20019;-48
2023/09/03 08:55:42;;;;;;;1.80;1.40;;;;;;;17.97;100.00;99473.56;15265744;19;20392;-50
2023/09/03 09:01:06;;;;;;;2.17;1.10;;;;;;;18.09;100.00;99468.53;15271079;19;20026;-49
2023/09/03 09:06:43;;;;;;;3.05;1.40;;;;;;;18.21;100.00;99490.72;15268424;19;20367;-48
2023/09/03 09:12:15;;;;;;;1.98;1.20;;;;;;;18.23;100.00;99470.41;15263001;19;20995;-50
2023/09/03 09:17:44;;;;;;;2.70;1.25;;;;;;;18.27;100.00;99473.63;15270268;19;20042;-51
2023/09/03 09:23:11;;;;;;;1.98;1.30;;;;;;;18.22;100.00;99465.16;15259574;19;20029;-51
2023/09/03 09:28:36;;;;;;;1.40;1.17;;;;;;;18.26;100.00;99470.06;15272495;19;20016;-51
2023/09/03 09:34:02;;;;;;;1.60;1.20;;;;;;;18.36;100.00;99480.72;15269638;19;20014;-51
2023/09/03 09:39:29;;;;;;;2.40;1.33;;;;;;;18.40;100.00;99457.47;15265248;19;20539;-50
2023/09/03 09:45:03;;;;;;;3.08;1.40;;;;;;;18.42;100.00;99435.47;15271085;19;20018;-51
2023/09/03 09:50:40;;;;;;;2.15;1.13;;;;;;;18.51;100.00;99433.50;15270626;19;20047;-54
2023/09/03 09:56:12;;;;;;;5.50;1.30;;;;;;;18.65;100.00;99440.81;15263259;19;20021;-52
2023/09/03 10:01:51;;;;;;;1.77;1.30;;;;;;;18.72;100.00;99455.41;15266495;19;20011;-48
2023/09/03 10:07:24;;;;;;;9.05;2.42;;;;;;;19.00;100.00;99438.34;15272491;19;20018;-48
2023/09/03 10:12:52;;;;;;;4.22;1.90;;;;;;;19.22;100.00;99446.63;15259431;19;20032;-48
2023/09/03 10:18:17;;;;;;;5.68;1.85;;;;;;;19.30;100.00;99449.22;15269547;19;20440;-54
2023/09/03 10:23:49;;;;;;;3.58;1.20;;;;;;;19.27;100.00;99454.22;15266393;19;20014;-49
2023/09/03 10:29:21;;;;;;;1.10;1.00;;;;;;;19.31;100.00;99455.50;15257429;19;20470;-48
2023/09/03 10:34:48;;;;;;;2.60;1.30;;;;;;;19.31;100.00;99467.31;15262665;19;20613;-49
2023/09/03 10:40:28;;;;;;;1.67;1.20;;;;;;;19.05;100.00;99467.84;15261300;19;20471;-49
2023/09/03 10:46:09;;;;;;;2.10;1.20;;;;;;;19.05;100.00;99465.94;15258870;19;20018;-49
2023/09/03 10:51:43;;;;;;;1.80;1.27;;;;;;;19.27;100.00;99463.25;15262440;19;20022;-47
2023/09/03 10:57:20;;;;;;;3.97;1.35;;;;;;;19.29;100.00;99446.66;15261606;19;20081;-51
2023/09/03 11:02:47;;;;;;;2.88;1.40;;;;;;;19.46;100.00;99448.13;15252735;19;20023;-47
2023/09/03 11:08:30;;;;;;;4.18;1.30;;;;;;;19.43;100.00;99442.22;15263120;19;20018;-48
2023/09/03 11:13:59;;;;;;;2.10;1.10;;;;;;;19.29;100.00;99450.25;15264263;19;20033;-50
2023/09/03 11:19:26;;;;;;;2.40;1.10;;;;;;;19.45;100.00;99448.34;15256540;19;20078;-48
2023/09/03 11:24:57;;;;;;;1.75;1.10;;;;;;;19.61;100.00;99445.31;15266158;19;20015;-51
2023/09/03 11:30:22;;;;;;;1.95;1.00;;;;;;;19.78;100.00;99456.00;15268145;19;20022;-52
2023/09/03 11:35:56;;;;;;;1.88;0.80;;;;;;;19.81;100.00;99445.53;15270006;19;20423;-47
2023/09/03 11:41:21;;;;;;;1.15;0.90;;;;;;;20.05;100.00;99445.34;15276735;19;20010;-50
2023/09/03 11:46:45;;;;;;;1.45;0.80;;;;;;;20.30;100.00;99449.31;15280157;19;20020;-51
2023/09/03 11:52:15;;;;;;;2.60;1.00;;;;;;;20.37;100.00;99445.78;15267201;19;20086;-54
2023/09/03 11:57:43;;;;;;;0.98;0.90;;;;;;;20.39;100.00;99446.44;15275279;19;20018;-53
2023/09/03 12:03:09;;;;;;;1.00;0.70;;;;;;;20.63;100.00;99445.97;15272262;19;20014;-55
2023/09/03 12:08:39;;;;;;;1.60;0.98;;;;;;;20.79;100.00;99443.94;15271328;19;20029;-52
2023/09/03 12:14:04;;;;;;;1.42;0.93;;;;;;;20.44;100.00;99463.94;15276335;19;20021;-50
2023/09/03 12:19:28;;;;;;;1.23;0.98;;;;;;;20.14;100.00;99466.03;15274422;19;20031;-52
2023/09/03 12:24:56;;;;;;;1.98;1.00;;;;;;;20.00;100.00;99460.44;15268611;19;20015;-53
2023/09/03 12:30:21;;;;;;;1.45;0.98;;;;;;;20.26;100.00;99455.38;15275233;19;20014;-53
2023/09/03 12:35:46;;;;;;;1.00;0.70;;;;;;;20.18;100.00;99470.06;15273882;19;20022;-54
2023/09/03 12:41:13;;;;;;;1.13;0.90;;;;;;;20.16;100.00;99464.78;15266294;19;20049;-55
2023/09/03 12:46:38;;;;;;;0.70;0.70;;;;;;;20.25;100.00;99457.28;15276623;19;20014;-50
2023/09/03 12:52:03;;;;;;;0.73;0.73;;;;;;;20.41;100.00;99471.69;15270323;19;20098;-56
2023/09/03 12:57:31;;;;;;;1.35;1.00;;;;;;;20.57;100.00;99471.38;15264512;19;20025;-57
2023/09/03 13:02:55;;;;;;;2.85;0.80;;;;;;;20.42;100.00;99459.69;15270387;19;20455;-50
2023/09/03 13:08:20;;;;;;;1.30;0.85;;;;;;;20.37;100.00;99468.50;15276751;19;20019;-55
2023/09/03 13:13:49;;;;;;;1.42;0.80;;;;;;;20.46;100.00;99471.94;15273163;19;20030;-48
2023/09/03 13:19:14;;;;;;;3.17;0.80;;;;;;;20.63;100.00;99469.75;15274264;19;20019;-52
2023/09/03 13:24:38;;;;;;;2.60;0.70;;;;;;;20.80;100.00;99470.28;15273134;19;20021;-54
2023/09/03 13:30:10;;;;;;;3.10;0.80;;;;;;;20.68;100.00;99471.88;15267057;19;20486;-55
2023/09/03 13:35:34;;;;;;;2.67;0.90;;;;;;;20.59;100.00;99468.44;15269669;19;20019;-48
2023/09/03 13:40:59;;;;;;;1.58;0.90;;;;;;;20.64;100.00;99477.75;15264545;19;20029;-49
2023/09/03 13:46:29;;;;;;;4.25;0.90;;;;;;;20.89;100.00;99480.03;15273212;19;20015;-48
2023/09/03 13:51:47;;;;;;;0.80;0.80;;;;;;;20.80;100.00;99478.50;15270811;19;20014;-51
2023/09/03 13:57:13;;;;;;;1.48;0.85;;;;;;;20.67;100.00;99482.00;15266719;19;20022;-55
2023/09/03 14:02:40;;;;;;;1.58;0.70;;;;;;;20.61;100.00;99491.00;15265663;19;20074;-52
2023/09/03 14:08:06;;;;;;;1.95;0.93;;;;;;;20.55;100.00;99483.59;15261605;19;20027;-51
2023/09/03 14:13:30;;;;;;;4.60;0.70;;;;;;;20.80;100.00;99474.94;15260216;19;20037;-51
2023/09/03 14:18:58;;;;;;;1.00;0.70;;;;;;;20.93;100.00;99464.88;15263881;19;20029;-54
2023/09/03 14:24:22;;;;;;;1.67;1.00;;;;;;;20.81;100.00;99474.72;15266295;19;20373;-54
2023/09/03 14:29:47;;;;;;;1.38;0.75;;;;;;;20.79;100.00;99468.59;15260790;19;21219;-51
2023/09/03 14:35:15;;;;;;;1.52;0.80;;;;;;;20.99;100.00;99468.69;15268087;19;20010;-50
2023/09/03 14:40:40;;;;;;;1.27;0.70;;;;;;;21.31;100.00;99471.78;15265837;19;20475;-51
2023/09/03 14:46:07;;;;;;;1.77;0.70;;;;;;;21.61;100.00;99473.34;15262262;19;20033;-52
2023/09/03 14:51:35;;;;;;;1.13;0.80;;;;;;;21.68;100.00;99468.75;15265049;19;20646;-52
2023/09/03 14:57:00;;;;;;;2.10;0.80;;;;;;;21.47;100.00;99470.53;15266854;19;20022;-51
2023/09/03 15:02:25;;;;;;;1.10;0.60;;;;;;;21.33;100.00;99475.16;15255462;19;20600;-52
2023/09/03 15:07:59;;;;;;;0.98;0.80;;;;;;;21.44;100.00;99465.50;15283882;19;20632;-52
2023/09/03 15:13:24;;;;;;;0.73;0.70;;;;;;;21.36;100.00;99465.66;15273066;19;20079;-53
2023/09/03 15:18:49;;;;;;;0.95;0.70;;;;;;;21.09;100.00;99460.94;15272145;19;20093;-55
2023/09/03 15:24:17;;;;;;;0.75;0.60;;;;;;;20.97;100.00;99453.53;15279260;19;20031;-53
2023/09/03 15:29:41;;;;;;;0.90;0.65;;;;;;;20.73;100.00;99466.66;15278920;19;20011;-54
2023/09/03 15:35:07;;;;;;;3.42;0.80;;;;;;;20.67;100.00;99472.91;15274508;19;20484;-52
2023/09/03 15:40:34;;;;;;;0.88;0.60;;;;;;;20.50;100.00;99480.59;15277706;19;20085;-53
2023/09/03 15:45:59;;;;;;;1.00;0.70;;;;;;;20.36;100.00;99482.41;15276934;19;20014;-51
2023/09/03 15:51:23;;;;;;;0.82;0.63;;;;;;;20.44;100.00;99476.78;15270727;19;20010;-52
2023/09/03 15:56:52;;;;;;;0.90;0.70;;;;;;;20.46;100.00;99470.03;15277504;19;20019;-50
2023/09/03 16:02:17;;;;;;;1.15;0.60;;;;;;;20.48;100.00;99472.59;15272861;19;20015;-53
2023/09/03 16:07:48;;;;;;;0.80;0.50;;;;;;;20.53;100.00;99472.81;15264011;19;20010;-53
2023/09/03 16:13:16;;;;;;;0.90;0.55;;;;;;;20.55;100.00;99473.47;15269514;19;20403;-53
2023/09/03 16:18:40;;;;;;;1.35;0.70;;;;;;;20.56;100.00;99488.84;15268144;19;20018;-53
2023/09/03 16:24:06;;;;;;;1.77;0.60;;;;;;;20.47;100.00;99484.59;15271893;19;20011;-50
2023/09/03 16:29:35;;;;;;;1.17;0.63;;;;;;;20.50;100.00;99483.34;15273645;19;20013;-49
2023/09/03 16:35:00;;;;;;;2.90;0.55;;;;;;;20.47;100.00;99479.13;15276145;19;20016;-53
2023/09/03 16:40:25;;;;;;;0.77;0.50;;;;;;;20.41;100.00;99472.56;15266198;19;20018;-55
2023/09/03 16:45:52;;;;;;;2.50;0.60;;;;;;;20.39;100.00;99471.06;15276070;19;20014;-51
2023/09/03 16:51:17;;;;;;;1.20;0.80;;;;;;;20.24;100.00;99466.53;15271048;19;20010;-53
2023/09/03 16:56:36;;;;;;;0.50;0.50;;;;;;;20.05;100.00;99475.44;15264528;19;20026;-55
2023/09/03 17:02:06;;;;;;;0.85;0.68;;;;;;;19.84;100.00;99474.34;15271363;19;20757;-57
2023/09/03 17:07:37;;;;;;;0.85;0.60;;;;;;;19.66;100.00;99475.69;15266461;19;20022;-55
2023/09/03 17:13:02;;;;;;;2.38;0.80;;;;;;;19.55;100.00;99470.72;15261244;19;20040;-57
2023/09/03 17:18:29;;;;;;;1.10;0.60;;;;;;;19.38;100.00;99484.63;15271867;19;20471;-57
2023/09/03 17:23:54;;;;;;;1.17;0.60;;;;;;;19.23;100.00;99479.19;15271077;19;20011;-52
2023/09/03 17:29:18;;;;;;;0.75;0.63;;;;;;;19.04;100.00;99483.38;15265171;19;20031;-57
2023/09/03 17:34:46;;;;;;;2.25;0.68;;;;;;;18.90;100.00;99487.78;15274621;19;20021;-56
2023/09/03 17:40:12;;;;;;;1.25;0.90;;;;;;;18.75;100.00;99496.00;15268244;19;20025;-54
2023/09/03 17:45:41;;;;;;;2.15;0.80;;;;;;;18.59;100.00;99505.19;15266193;19;20007;-56
2023/09/03 17:51:09;;;;;;;1.05;0.60;;;;;;;18.44;100.00;99507.91;15268791;19;20027;-56
2023/09/03 17:56:33;;;;;;;2.72;0.70;;;;;;;18.27;100.00;99514.56;15270255;19;20035;-56
2023/09/03 18:02:03;;;;;;;0.80;0.47;;;;;;;18.15;100.00;99509.56;15264461;19;20014;-55
2023/09/03 18:07:31;;;;;;;1.52;0.70;;;;;;;17.99;100.00;99523.31;15264359;19;20021;-55
2023/09/03 18:12:57;;;;;;;1.08;0.70;;;;;;;17.87;100.00;99534.59;15267312;19;20007;-54
2023/09/03 18:18:21;;;;;;;2.38;0.70;;;;;;;17.70;100.00;99531.16;15259529;19;20031;-53
2023/09/03 18:23:49;;;;;;;2.42;0.65;;;;;;;17.61;100.00;99537.69;15268546;19;20010;-57
2023/09/03 18:29:14;;;;;;;3.13;0.73;;;;;;;17.52;100.00;99536.03;15270135;19;20047;-55
2023/09/03 18:34:39;;;;;;;1.00;0.60;;;;;;;17.49;100.00;99531.78;15258917;19;20022;-55
2023/09/03 18:40:07;;;;;;;1.38;0.60;;;;;;;17.47;100.00;99536.56;15267848;19;20019;-55
2023/09/03 18:45:33;;;;;;;1.30;0.70;;;;;;;17.54;100.00;99548.44;15273899;19;20422;-54
2023/09/03 18:51:02;;;;;;;1.02;0.63;;;;;;;17.68;100.00;99546.00;15265587;19;20014;-52
2023/09/03 18:56:30;;;;;;;1.85;0.68;;;;;;;17.75;100.00;99555.13;15279256;19;20014;-50
2023/09/03 19:01:54;;;;;;;1.48;0.65;;;;;;;17.75;100.00;99554.31;15277839;19;20504;-51
2023/09/03 19:07:26;;;;;;;1.55;0.70;;;;;;;17.62;100.00;99563.03;15271986;19;20017;-53
2023/09/03 19:12:53;;;;;;;2.28;0.70;;;;;;;17.47;100.00;99569.25;15274652;19;20015;-52
2023/09/03 19:18:22;;;;;;;0.60;0.60;;;;;;;17.35;100.00;99570.66;15279601;19;20016;-53
2023/09/03 19:23:47;;;;;;;0.85;0.50;;;;;;;17.15;100.00;99584.72;15271329;19;20021;-49
2023/09/03 19:29:16;;;;;;;1.08;0.63;;;;;;;17.03;100.00;99577.94;15279656;19;20027;-51
2023/09/03 19:34:40;;;;;;;1.20;0.70;;;;;;;16.94;100.00;99591.59;15281610;19;20018;-54
2023/09/03 19:40:05;;;;;;;0.82;0.60;;;;;;;16.90;100.00;99590.19;15272399;19;20618;-49
2023/09/03 19:45:33;;;;;;;1.10;0.70;;;;;;;16.86;100.00;99586.13;15279858;19;20015;-49
2023/09/03 19:50:59;;;;;;;1.33;0.70;;;;;;;16.78;100.00;99587.00;15275523;19;20351;-48
2023/09/03 19:56:23;;;;;;;0.80;0.68;;;;;;;16.66;100.00;99595.69;15249430;19;20010;-55
2023/09/03 20:01:51;;;;;;;1.95;0.65;;;;;;;16.46;100.00;99585.16;15273285;19;20475;-52
2023/09/03 20:07:23;;;;;;;2.05;0.80;;;;;;;16.27;100.00;99579.06;15275355;19;20713;-53
2023/09/03 20:12:48;;;;;;;2.08;0.88;;;;;;;16.14;100.00;99584.16;15269011;19;20018;-53
2023/09/03 20:18:16;;;;;;;1.95;0.90;;;;;;;15.99;100.00;99578.53;15275320;19;20355;-53
2023/09/03 20:23:41;;;;;;;2.20;0.90;;;;;;;15.78;100.00;99579.78;15271713;19;20025;-55
2023/09/03 20:29:05;;;;;;;1.15;0.80;;;;;;;15.62;100.00;99586.03;15270478;19;20438;-55
2023/09/03 20:34:36;;;;;;;1.05;0.88;;;;;;;15.56;100.00;99587.56;15276951;19;20098;-56
2023/09/03 20:40:02;;;;;;;1.58;0.77;;;;;;;15.51;100.00;99581.78;15271676;19;20014;-53
2023/09/03 20:45:26;;;;;;;1.48;0.70;;;;;;;15.45;100.00;99573.44;15276558;19;20023;-56
2023/09/03 20:50:54;;;;;;;1.27;0.80;;;;;;;15.38;100.00;99584.94;15274723;19;20035;-54
2023/09/03 20:56:20;;;;;;;1.02;0.70;;;;;;;15.34;100.00;99582.72;15274932;19;20021;-52
2023/09/03 21:01:45;;;;;;;0.93;0.80;;;;;;;15.26;100.00;99578.09;15268832;19;20031;-51
2023/09/03 21:07:19;;;;;;;1.10;0.70;;;;;;;15.21;100.00;99572.34;15267688;19;20036;-54
2023/09/03 21:12:43;;;;;;;1.27;0.70;;;;;;;15.13;100.00;99575.00;15265723;19;20010;-52
2023/09/03 21:18:08;;;;;;;1.65;0.70;;;;;;;15.06;100.00;99572.94;15272380;19;20580;-49
2023/09/03 21:23:39;;;;;;;1.45;0.82;;;;;;;15.01;100.00;99579.88;15268497;19;20090;-51
2023/09/03 21:29:04;;;;;;;1.25;0.80;;;;;;;14.92;100.00;99577.13;15265543;19;20050;-48
2023/09/03 21:34:29;;;;;;;1.25;0.80;;;;;;;14.83;100.00;99579.94;15272143;19;20078;-50
2023/09/03 21:39:57;;;;;;;1.80;0.90;;;;;;;14.68;100.00;99575.09;15266262;19;20035;-50
2023/09/03 21:45:22;;;;;;;1.48;0.93;;;;;;;14.60;100.00;99572.31;15268632;19;20090;-49
2023/09/03 21:50:46;;;;;;;2.08;1.00;;;;;;;14.46;100.00;99573.75;15269654;19;20014;-49
2023/09/03 21:56:29;;;;;;;1.58;0.80;;;;;;;14.36;100.00;99579.25;15272225;19;20361;-53
2023/09/03 22:01:54;;;;;;;2.50;0.90;;;;;;;14.28;100.00;99579.19;15259976;19;20024;-49
2023/09/03 22:07:20;;;;;;;1.40;0.80;;;;;;;14.21;100.00;99564.53;15266865;19;20088;-54
2023/09/03 22:12:47;;;;;;;3.50;0.75;;;;;;;14.12;100.00;99555.47;15265817;19;20056;-52
2023/09/03 22:18:11;;;;;;;1.48;0.75;;;;;;;14.05;100.00;99566.13;15264187;19;20010;-51
2023/09/03 22:23:36;;;;;;;1.08;0.90;;;;;;;14.00;100.00;99571.16;15264407;19;20021;-51
2023/09/03 22:29:03;;;;;;;2.53;1.00;;;;;;;13.95;100.00;99576.16;15269037;19;20022;-52
2023/09/03 22:34:28;;;;;;;1.48;0.80;;;;;;;13.91;100.00;99578.34;15260375;19;20620;-50
2023/09/03 22:39:52;;;;;;;1.27;0.70;;;;;;;13.85;100.00;99593.34;15266225;19;20028;-48
2023/09/03 22:45:21;;;;;;;2.42;0.90;;;;;;;13.78;100.00;99603.09;15268977;19;20479;-51
2023/09/03 22:50:45;;;;;;;1.98;0.90;;;;;;;13.73;100.00;99594.56;15261392;19;20473;-51
2023/09/03 22:56:11;;;;;;;1.95;0.93;;;;;;;13.69;100.00;99604.88;15268791;19;20014;-52
2023/09/03 23:01:39;;;;;;;1.35;0.90;;;;;;;13.65;100.00;99597.19;15263395;19;20014;-50
2023/09/03 23:07:11;;;;;;;1.77;0.90;;;;;;;13.56;100.00;99605.25;15260124;19;20006;-53
2023/09/03 23:12:37;;;;;;;1.33;1.02;;;;;;;13.52;100.00;99616.53;15261995;19;20025;-53
2023/09/03 23:18:12;;;;;;;0.80;0.80;;;;;;;13.44;100.00;99617.28;15233106;19;20014;-53
2023/09/03 23:23:38;;;;;;;1.30;0.80;;;;;;;13.36;100.00;99626.09;15257661;19;20363;-51
2023/09/03 23:29:04;;;;;;;2.05;0.70;;;;;;;13.31;100.00;99630.28;15281990;19;20010;-54
2023/09/03 23:34:31;;;;;;;1.55;0.70;;;;;;;13.23;100.00;99648.09;15279584;19;20011;-54
2023/09/03 23:39:57;;;;;;;0.80;0.70;;;;;;;13.14;100.00;99648.97;15271730;19;20375;-51
2023/09/03 23:45:22;;;;;;;1.15;0.82;;;;;;;13.05;100.00;99645.28;15280514;19;20482;-51
2023/09/03 23:50:51;;;;;;;1.67;1.00;;;;;;;12.98;100.00;99652.31;15279509;19;20463;-49
2023/09/03 23:56:16;;;;;;;1.98;0.75;;;;;;;12.91;100.00;99649.31;15276893;19;20015;-49
